Time;durP1;ratioP1;P1;durP2;ratioP2;P2;SDS_P1;SDS_P2;PMS_P1;PMS_P2;Temp;Humidity;BMP_temperature;BMP_pressure;BME280_temperature;BME280_humidity;BME280_pressure;Samples;Min_cycle;Max_cycle;Signal;HPM_P1;HPM_P2
2021/11/22 00:02:14;;;;;;;11.80;10.60;;;;;;;;;;4984832;28;24822;-66
2021/11/22 00:04:40;;;;;;;14.00;11.55;;;;;;;;;;4982504;28;24428;-65
2021/11/22 00:07:05;;;;;;;12.45;10.60;;;;;;;;;;4984622;28;24535;-66
2021/11/22 00:09:32;;;;;;;14.60;11.20;;;;;;;;;;4979915;28;24421;-65
2021/11/22 00:11:58;;;;;;;14.38;10.00;;;;;;;;;;4986857;28;24401;-66
2021/11/22 00:14:23;;;;;;;11.80;10.30;;;;;;;;;;4984995;28;24463;-66
2021/11/22 00:16:48;;;;;;;11.52;10.32;;;;;;;;;;4984961;28;24417;-66
2021/11/22 00:19:13;;;;;;;13.77;10.73;;;;;;;;;;4986202;28;24451;-66
2021/11/22 00:21:38;;;;;;;11.93;10.40;;;;;;;;;;4982394;28;24995;-67
2021/11/22 00:24:04;;;;;;;12.20;10.07;;;;;;;;;;4994236;28;24404;-67
2021/11/22 00:26:29;;;;;;;13.27;10.40;;;;;;;;;;4982761;28;24835;-66
2021/11/22 00:28:54;;;;;;;13.70;10.90;;;;;;;;;;4986651;28;24475;-66
2021/11/22 00:31:19;;;;;;;12.23;9.47;;;;;;;;;;4989468;28;25120;-66
2021/11/22 00:33:46;;;;;;;11.93;9.90;;;;;;;;;;4984610;28;24423;-67
2021/11/22 00:36:11;;;;;;;10.30;9.18;;;;;;;;;;4983137;28;24922;-66
2021/11/22 00:38:36;;;;;;;11.13;9.10;;;;;;;;;;4982235;28;24429;-65
2021/11/22 00:41:02;;;;;;;8.95;8.05;;;;;;;;;;4985985;28;24509;-66
2021/11/22 00:43:27;;;;;;;10.27;9.15;;;;;;;;;;4985472;28;24424;-66
2021/11/22 00:45:53;;;;;;;10.80;8.93;;;;;;;;;;4983642;28;24431;-65
2021/11/22 00:48:21;;;;;;;12.10;8.63;;;;;;;;;;4985198;28;24504;-66
2021/11/22 00:50:46;;;;;;;12.63;8.88;;;;;;;;;;4982963;28;24523;-65
2021/11/22 00:53:11;;;;;;;10.23;9.23;;;;;;;;;;4981693;28;25188;-65
2021/11/22 00:55:37;;;;;;;10.13;8.77;;;;;;;;;;4979858;28;24791;-66
2021/11/22 00:58:02;;;;;;;9.77;8.33;;;;;;;;;;4983164;28;24459;-66
2021/11/22 01:00:28;;;;;;;10.33;8.10;;;;;;;;;;4983449;28;24515;-66
2021/11/22 01:02:53;;;;;;;8.70;7.57;;;;;;;;;;4984812;28;24425;-65
2021/11/22 01:05:18;;;;;;;11.20;8.60;;;;;;;;;;4985526;28;24540;-65
2021/11/22 01:07:43;;;;;;;10.13;8.00;;;;;;;;;;4979855;28;24413;-65
2021/11/22 01:10:09;;;;;;;9.97;8.80;;;;;;;;;;4979717;28;24441;-65
2021/11/22 01:12:34;;;;;;;9.90;8.20;;;;;;;;;;4985417;28;24996;-66
2021/11/22 01:15:00;;;;;;;11.10;8.50;;;;;;;;;;4985442;28;24567;-66
2021/11/22 01:17:26;;;;;;;9.68;8.68;;;;;;;;;;4996937;28;24385;-65
2021/11/22 01:19:53;;;;;;;9.82;8.40;;;;;;;;;;4990899;28;24407;-65
2021/11/22 01:22:19;;;;;;;10.68;8.27;;;;;;;;;;4992684;28;24417;-65
2021/11/22 01:24:44;;;;;;;11.45;8.60;;;;;;;;;;4985257;28;24468;-65
2021/11/22 01:27:09;;;;;;;11.00;9.43;;;;;;;;;;4985013;28;24534;-66
2021/11/22 01:29:35;;;;;;;12.00;9.25;;;;;;;;;;4983610;28;24532;-65
2021/11/22 01:32:00;;;;;;;13.00;9.80;;;;;;;;;;4987565;28;24986;-65
2021/11/22 01:34:28;;;;;;;9.30;8.17;;;;;;;;;;4981348;28;24409;-65
2021/11/22 01:36:53;;;;;;;11.82;7.93;;;;;;;;;;4980909;28;24416;-65
2021/11/22 01:39:18;;;;;;;12.35;9.15;;;;;;;;;;4983363;28;24412;-65
2021/11/22 01:41:43;;;;;;;9.45;7.90;;;;;;;;;;4984356;28;24512;-65
2021/11/22 01:44:09;;;;;;;10.70;8.20;;;;;;;;;;4984658;28;24413;-65
2021/11/22 01:46:34;;;;;;;9.67;8.17;;;;;;;;;;4978798;28;24425;-64
2021/11/22 01:49:00;;;;;;;13.13;9.70;;;;;;;;;;4980734;28;24452;-64
2021/11/22 01:51:25;;;;;;;10.50;8.75;;;;;;;;;;4984341;28;24425;-65
2021/11/22 01:53:50;;;;;;;10.70;8.52;;;;;;;;;;4980870;28;24852;-65
2021/11/22 01:56:16;;;;;;;10.80;8.40;;;;;;;;;;4980428;28;24981;-65
2021/11/22 01:58:41;;;;;;;8.93;8.00;;;;;;;;;;4979174;28;24487;-65
2021/11/22 02:01:06;;;;;;;9.30;8.30;;;;;;;;;;4980574;28;24493;-65
2021/11/22 02:03:32;;;;;;;10.37;8.20;;;;;;;;;;4984487;28;24490;-65
2021/11/22 02:05:57;;;;;;;10.05;7.95;;;;;;;;;;4982259;28;24433;-65
2021/11/22 02:08:23;;;;;;;12.75;9.70;;;;;;;;;;4978157;28;24417;-65
2021/11/22 02:10:49;;;;;;;11.13;8.55;;;;;;;;;;4984660;28;24412;-65
2021/11/22 02:13:15;;;;;;;11.97;8.17;;;;;;;;;;4983234;28;24448;-65
2021/11/22 02:15:40;;;;;;;10.90;8.60;;;;;;;;;;4980107;28;24931;-65
2021/11/22 02:18:05;;;;;;;10.37;8.90;;;;;;;;;;4977992;28;24475;-65
2021/11/22 02:20:32;;;;;;;11.27;8.97;;;;;;;;;;4982309;28;24934;-64
2021/11/22 02:22:58;;;;;;;10.43;8.30;;;;;;;;;;4983554;28;24951;-64
2021/11/22 02:25:24;;;;;;;8.50;7.60;;;;;;;;;;4981569;28;24502;-65
2021/11/22 02:27:50;;;;;;;9.90;8.48;;;;;;;;;;4983504;28;24548;-65
2021/11/22 02:30:16;;;;;;;10.33;8.33;;;;;;;;;;4979705;28;24768;-65
2021/11/22 02:32:42;;;;;;;10.00;7.60;;;;;;;;;;4979986;28;24404;-64
2021/11/22 02:35:10;;;;;;;12.40;8.63;;;;;;;;;;4981413;28;24451;-64
2021/11/22 02:37:35;;;;;;;11.63;9.00;;;;;;;;;;4981643;28;24666;-64
2021/11/22 02:40:01;;;;;;;10.35;8.75;;;;;;;;;;4983221;28;24876;-64
2021/11/22 02:42:27;;;;;;;12.07;8.90;;;;;;;;;;4983571;28;24428;-64
2021/11/22 02:44:52;;;;;;;12.50;8.30;;;;;;;;;;4982891;28;24437;-64
2021/11/22 02:47:18;;;;;;;9.87;7.30;;;;;;;;;;4983093;28;24986;-64
2021/11/22 02:49:44;;;;;;;11.57;6.83;;;;;;;;;;4979665;28;24489;-64
2021/11/22 02:52:09;;;;;;;10.13;7.27;;;;;;;;;;4981760;28;25201;-64
2021/11/22 02:54:34;;;;;;;9.30;7.90;;;;;;;;;;4981581;28;24491;-65
2021/11/22 02:56:59;;;;;;;10.70;7.20;;;;;;;;;;4979304;28;25310;-64
2021/11/22 02:59:26;;;;;;;10.00;7.60;;;;;;;;;;4977725;28;24989;-64
2021/11/22 03:01:51;;;;;;;9.95;7.70;;;;;;;;;;4964322;28;24408;-64
2021/11/22 03:04:16;;;;;;;11.82;8.32;;;;;;;;;;4979086;28;24507;-64
2021/11/22 03:06:43;;;;;;;9.40;7.68;;;;;;;;;;4979738;28;24420;-64
2021/11/22 03:09:09;;;;;;;11.57;8.45;;;;;;;;;;4980954;28;24483;-64
2021/11/22 03:11:34;;;;;;;8.50;7.60;;;;;;;;;;4981883;28;24462;-65
2021/11/22 03:13:59;;;;;;;10.30;7.57;;;;;;;;;;4983501;28;25006;-65
2021/11/22 03:16:29;;;;;;;9.00;7.68;;;;;;;;;;4980934;28;24424;-64
2021/11/22 03:18:54;;;;;;;9.20;7.18;;;;;;;;;;4979946;28;24779;-65
2021/11/22 03:21:19;;;;;;;11.67;8.60;;;;;;;;;;4982832;28;25155;-65
2021/11/22 03:23:45;;;;;;;11.13;8.00;;;;;;;;;;4979980;28;24425;-65
2021/11/22 03:26:10;;;;;;;11.60;8.30;;;;;;;;;;4983315;28;24460;-64
2021/11/22 03:28:35;;;;;;;10.30;7.50;;;;;;;;;;4983051;28;24799;-65
2021/11/22 03:31:01;;;;;;;8.83;6.53;;;;;;;;;;4983177;28;24847;-64
2021/11/22 03:33:26;;;;;;;7.43;6.72;;;;;;;;;;4985119;28;24409;-64
2021/11/22 03:35:53;;;;;;;8.90;7.10;;;;;;;;;;4986321;28;24471;-64
2021/11/22 03:38:20;;;;;;;10.02;7.43;;;;;;;;;;4986314;28;24443;-64
2021/11/22 03:40:47;;;;;;;10.50;7.15;;;;;;;;;;4985295;28;24415;-64
2021/11/22 03:43:14;;;;;;;8.13;7.10;;;;;;;;;;4986551;28;24463;-64
2021/11/22 03:45:43;;;;;;;11.82;8.40;;;;;;;;;;4979864;28;24429;-64
2021/11/22 03:48:09;;;;;;;10.95;8.93;;;;;;;;;;4987759;28;24409;-64
2021/11/22 03:50:34;;;;;;;9.70;8.70;;;;;;;;;;4991568;28;24416;-64
2021/11/22 03:53:00;;;;;;;11.00;9.13;;;;;;;;;;4985098;28;24467;-64
2021/11/22 03:55:26;;;;;;;16.40;10.20;;;;;;;;;;4980692;28;24448;-65
2021/11/22 03:57:51;;;;;;;14.60;9.47;;;;;;;;;;4984266;28;24970;-64
2021/11/22 04:00:18;;;;;;;11.38;9.23;;;;;;;;;;4985573;28;24444;-65
2021/11/22 04:02:43;;;;;;;13.03;8.90;;;;;;;;;;4984400;28;25036;-65
2021/11/22 04:05:08;;;;;;;15.30;11.40;;;;;;;;;;4984801;28;25071;-65
2021/11/22 04:07:34;;;;;;;15.37;10.23;;;;;;;;;;4980566;28;24578;-65
2021/11/22 04:09:59;;;;;;;13.47;9.57;;;;;;;;;;4985057;28;24484;-65
2021/11/22 04:12:24;;;;;;;10.20;9.20;;;;;;;;;;4983603;28;24407;-65
2021/11/22 04:14:50;;;;;;;14.33;11.50;;;;;;;;;;4986252;28;24516;-64
2021/11/22 04:17:15;;;;;;;13.10;10.60;;;;;;;;;;4986243;28;24959;-64
2021/11/22 04:19:40;;;;;;;10.43;9.43;;;;;;;;;;4981066;28;24401;-63
2021/11/22 04:22:06;;;;;;;13.43;11.00;;;;;;;;;;4980502;28;24428;-64
2021/11/22 04:24:31;;;;;;;11.00;8.88;;;;;;;;;;4986408;28;24420;-64
2021/11/22 04:26:56;;;;;;;10.97;9.37;;;;;;;;;;4985684;28;24527;-66
2021/11/22 04:29:21;;;;;;;11.80;9.40;;;;;;;;;;5002066;28;24959;-66
2021/11/22 04:31:46;;;;;;;13.13;11.07;;;;;;;;;;4989377;28;24874;-66
2021/11/22 04:34:11;;;;;;;12.50;10.30;;;;;;;;;;4982199;28;24451;-66
2021/11/22 04:36:37;;;;;;;11.97;9.33;;;;;;;;;;4983466;28;24947;-66
2021/11/22 04:39:03;;;;;;;10.20;8.77;;;;;;;;;;4985230;28;24986;-65
2021/11/22 04:41:28;;;;;;;12.27;10.25;;;;;;;;;;4983723;28;24508;-66
2021/11/22 04:43:54;;;;;;;10.90;9.68;;;;;;;;;;4988349;28;25040;-67
2021/11/22 04:46:19;;;;;;;10.83;9.43;;;;;;;;;;4981643;28;24524;-66
2021/11/22 04:48:44;;;;;;;11.20;10.00;;;;;;;;;;4985958;28;24413;-66
2021/11/22 04:51:09;;;;;;;12.13;10.13;;;;;;;;;;4986056;28;24444;-66
2021/11/22 04:53:34;;;;;;;11.18;10.02;;;;;;;;;;4983935;28;24492;-67
2021/11/22 04:55:59;;;;;;;11.23;10.00;;;;;;;;;;4984087;28;24856;-67
2021/11/22 04:58:25;;;;;;;12.60;10.70;;;;;;;;;;4979423;28;24487;-67
2021/11/22 05:00:50;;;;;;;11.87;10.03;;;;;;;;;;4985924;28;25050;-66
2021/11/22 05:03:15;;;;;;;10.43;9.40;;;;;;;;;;4986157;28;24975;-66
2021/11/22 05:05:40;;;;;;;10.70;9.60;;;;;;;;;;4983675;28;24432;-66
2021/11/22 05:08:07;;;;;;;12.97;9.70;;;;;;;;;;4981740;28;24474;-67
2021/11/22 05:10:34;;;;;;;12.77;10.57;;;;;;;;;;4982638;28;24516;-67
2021/11/22 05:12:59;;;;;;;11.60;9.95;;;;;;;;;;4985670;28;24385;-67
2021/11/22 05:15:24;;;;;;;13.47;11.40;;;;;;;;;;4984704;28;24432;-66
2021/11/22 05:17:49;;;;;;;15.75;11.60;;;;;;;;;;4985377;28;25058;-66
2021/11/22 05:20:14;;;;;;;14.10;12.40;;;;;;;;;;4985018;28;24424;-66
2021/11/22 05:22:39;;;;;;;14.80;11.97;;;;;;;;;;4981278;28;24417;-67
2021/11/22 05:25:05;;;;;;;14.93;11.53;;;;;;;;;;4987993;28;24793;-63
2021/11/22 05:27:30;;;;;;;14.30;11.63;;;;;;;;;;4981578;28;24425;-66
2021/11/22 05:29:55;;;;;;;13.20;11.50;;;;;;;;;;4986013;28;24405;-68
2021/11/22 05:32:21;;;;;;;14.00;11.13;;;;;;;;;;4981077;28;24567;-66
2021/11/22 05:34:55;;;;;;;14.10;11.80;;;;;;;;;;4979417;28;24528;-66
2021/11/22 05:37:21;;;;;;;14.10;11.18;;;;;;;;;;4979375;28;24417;-66
2021/11/22 05:39:47;;;;;;;18.47;14.00;;;;;;;;;;4988342;28;24428;-66
2021/11/22 05:42:12;;;;;;;17.63;14.57;;;;;;;;;;4978043;28;24420;-67
2021/11/22 05:44:37;;;;;;;16.37;13.53;;;;;;;;;;4977162;28;24432;-67
2021/11/22 05:47:06;;;;;;;17.10;13.20;;;;;;;;;;4981710;28;24855;-67
2021/11/22 05:49:33;;;;;;;13.65;11.93;;;;;;;;;;4979273;28;24421;-67
2021/11/22 05:51:59;;;;;;;14.43;12.00;;;;;;;;;;4981651;28;24421;-66
2021/11/22 05:54:24;;;;;;;13.03;11.63;;;;;;;;;;4976685;28;24943;-67
2021/11/22 05:56:49;;;;;;;13.10;11.70;;;;;;;;;;4989954;28;24424;-67
2021/11/22 05:59:15;;;;;;;13.65;11.90;;;;;;;;;;4981170;28;24473;-67
2021/11/22 06:01:40;;;;;;;16.70;13.20;;;;;;;;;;4982246;28;25121;-67
2021/11/22 06:04:05;;;;;;;13.60;11.40;;;;;;;;;;4977812;28;24428;-67
2021/11/22 06:06:30;;;;;;;14.10;12.07;;;;;;;;;;4980450;28;24435;-70
2021/11/22 06:08:55;;;;;;;13.47;11.23;;;;;;;;;;4985831;28;24535;-70
2021/11/22 06:11:21;;;;;;;11.93;10.30;;;;;;;;;;4978801;28;24431;-67
2021/11/22 06:13:46;;;;;;;13.20;11.20;;;;;;;;;;4989573;28;24471;-67
2021/11/22 06:16:11;;;;;;;12.32;10.77;;;;;;;;;;4987226;28;24843;-67
2021/11/22 06:18:36;;;;;;;15.03;12.20;;;;;;;;;;4982071;28;24420;-67
2021/11/22 06:21:01;;;;;;;13.23;11.33;;;;;;;;;;4985080;28;24405;-67
2021/11/22 06:23:26;;;;;;;13.27;10.67;;;;;;;;;;4981915;28;24460;-67
2021/11/22 06:25:51;;;;;;;12.52;10.30;;;;;;;;;;4987944;28;24778;-67
2021/11/22 06:28:19;;;;;;;12.52;10.63;;;;;;;;;;4981856;28;24425;-67
2021/11/22 06:30:44;;;;;;;11.70;10.48;;;;;;;;;;4978245;28;24985;-67
2021/11/22 06:33:10;;;;;;;12.13;10.67;;;;;;;;;;4982111;28;24412;-67
2021/11/22 06:35:36;;;;;;;11.33;10.00;;;;;;;;;;4983657;28;24423;-67
2021/11/22 06:38:01;;;;;;;14.13;11.48;;;;;;;;;;4983860;28;24489;-67
2021/11/22 06:40:26;;;;;;;12.90;11.40;;;;;;;;;;4983420;28;24505;-67
2021/11/22 06:42:52;;;;;;;12.63;10.85;;;;;;;;;;4978250;28;24439;-67
2021/11/22 06:45:18;;;;;;;14.40;12.47;;;;;;;;;;4979231;28;24461;-67
2021/11/22 06:47:43;;;;;;;15.23;11.65;;;;;;;;;;4976485;28;24931;-67
2021/11/22 06:50:08;;;;;;;14.53;12.60;;;;;;;;;;4980901;28;24428;-68
2021/11/22 06:52:34;;;;;;;13.60;11.63;;;;;;;;;;4979003;28;25034;-67
2021/11/22 06:54:59;;;;;;;14.40;11.40;;;;;;;;;;4989290;28;24448;-67
2021/11/22 06:57:24;;;;;;;14.30;12.07;;;;;;;;;;4975796;28;24427;-68
2021/11/22 06:59:50;;;;;;;12.40;10.57;;;;;;;;;;4988231;28;25296;-67
2021/11/22 07:02:16;;;;;;;10.68;9.45;;;;;;;;;;4987708;28;24512;-67
2021/11/22 07:04:43;;;;;;;13.03;11.07;;;;;;;;;;4980657;28;25019;-67
2021/11/22 07:07:08;;;;;;;11.57;10.38;;;;;;;;;;4980092;28;24564;-67
2021/11/22 07:09:34;;;;;;;15.07;12.27;;;;;;;;;;4981940;28;24508;-67
2021/11/22 07:11:59;;;;;;;11.30;10.10;;;;;;;;;;4986473;28;24951;-67
2021/11/22 07:14:24;;;;;;;11.57;10.20;;;;;;;;;;4978995;28;24420;-67
2021/11/22 07:16:51;;;;;;;11.57;9.60;;;;;;;;;;4978939;28;25033;-67
2021/11/22 07:19:16;;;;;;;10.30;9.15;;;;;;;;;;4979914;28;24472;-67
2021/11/22 07:21:41;;;;;;;11.57;9.87;;;;;;;;;;4992654;28;24463;-67
2021/11/22 07:24:07;;;;;;;11.30;9.32;;;;;;;;;;4986474;28;24779;-68
2021/11/22 07:26:32;;;;;;;13.80;9.90;;;;;;;;;;4975005;28;24483;-67
2021/11/22 07:28:58;;;;;;;12.77;10.47;;;;;;;;;;4981752;28;24421;-67
2021/11/22 07:31:23;;;;;;;12.50;10.07;;;;;;;;;;4978382;28;24416;-66
2021/11/22 07:33:48;;;;;;;11.05;9.40;;;;;;;;;;4982831;28;24958;-66
2021/11/22 07:36:13;;;;;;;12.80;10.55;;;;;;;;;;4993264;28;24428;-66
2021/11/22 07:38:39;;;;;;;10.98;9.40;;;;;;;;;;4983909;28;24420;-67
2021/11/22 07:41:04;;;;;;;10.85;9.50;;;;;;;;;;4976211;28;25131;-66
2021/11/22 07:43:29;;;;;;;9.67;7.97;;;;;;;;;;4985173;28;25136;-67
2021/11/22 07:45:54;;;;;;;10.00;8.90;;;;;;;;;;4984432;28;24428;-66
2021/11/22 07:48:20;;;;;;;10.40;9.30;;;;;;;;;;4987990;28;24812;-66
2021/11/22 07:50:45;;;;;;;11.10;9.00;;;;;;;;;;4983015;28;24413;-66
2021/11/22 07:53:10;;;;;;;11.75;9.75;;;;;;;;;;4979933;28;24407;-66
2021/11/22 07:55:36;;;;;;;11.60;8.87;;;;;;;;;;4977935;28;24495;-65
2021/11/22 07:58:01;;;;;;;11.07;9.50;;;;;;;;;;4990149;28;24416;-66
2021/11/22 08:00:27;;;;;;;12.10;10.13;;;;;;;;;;4987498;28;24421;-66
2021/11/22 08:02:52;;;;;;;10.70;9.57;;;;;;;;;;4990638;28;24472;-66
2021/11/22 08:05:17;;;;;;;11.83;10.20;;;;;;;;;;4988866;28;24437;-66
2021/11/22 08:07:42;;;;;;;11.47;9.60;;;;;;;;;;4977461;28;25209;-66
2021/11/22 08:10:23;;;;;;;12.70;10.47;;;;;;;;;;4982913;28;24464;-66
2021/11/22 08:12:49;;;;;;;12.35;9.40;;;;;;;;;;4983225;28;24760;-66
2021/11/22 08:15:15;;;;;;;10.80;9.70;;;;;;;;;;4986501;28;24401;-66
2021/11/22 08:17:42;;;;;;;12.13;10.03;;;;;;;;;;4982214;28;24451;-66
2021/11/22 08:20:08;;;;;;;12.75;10.60;;;;;;;;;;4980142;28;24985;-66
2021/11/22 08:22:33;;;;;;;13.32;10.93;;;;;;;;;;4984217;28;24396;-66
2021/11/22 08:24:58;;;;;;;11.50;10.20;;;;;;;;;;4986128;28;24409;-66
2021/11/22 08:27:25;;;;;;;13.52;10.63;;;;;;;;;;4984316;28;24504;-66
2021/11/22 08:29:51;;;;;;;11.63;10.40;;;;;;;;;;4981672;28;24484;-66
2021/11/22 08:32:17;;;;;;;12.30;11.00;;;;;;;;;;4982326;28;24807;-66
2021/11/22 08:34:42;;;;;;;13.38;10.63;;;;;;;;;;4986209;28;24790;-66
2021/11/22 08:37:07;;;;;;;12.10;10.80;;;;;;;;;;4986409;28;24994;-66
2021/11/22 08:39:32;;;;;;;11.10;9.90;;;;;;;;;;4981955;28;24970;-66
2021/11/22 08:41:57;;;;;;;11.50;10.13;;;;;;;;;;4980599;28;24462;-66
2021/11/22 08:44:23;;;;;;;12.50;11.20;;;;;;;;;;4982331;28;24393;-67
2021/11/22 08:46:48;;;;;;;13.80;11.13;;;;;;;;;;4983318;28;24441;-67
2021/11/22 08:49:13;;;;;;;11.15;9.80;;;;;;;;;;4985911;28;24433;-67
2021/11/22 08:51:39;;;;;;;11.80;10.38;;;;;;;;;;4981327;28;25109;-66
2021/11/22 08:54:04;;;;;;;12.10;9.97;;;;;;;;;;4981525;28;24967;-67
2021/11/22 08:56:29;;;;;;;9.30;8.27;;;;;;;;;;4981655;28;24392;-66
2021/11/22 08:58:55;;;;;;;9.60;8.60;;;;;;;;;;4985584;28;24504;-66
2021/11/22 09:01:20;;;;;;;10.90;9.70;;;;;;;;;;4985390;28;24393;-66
2021/11/22 09:03:45;;;;;;;10.27;9.20;;;;;;;;;;4983445;28;25051;-66
2021/11/22 09:06:11;;;;;;;11.10;10.00;;;;;;;;;;4981471;28;24413;-68
2021/11/22 09:08:36;;;;;;;10.15;8.80;;;;;;;;;;4979780;28;24396;-66
2021/11/22 09:11:01;;;;;;;10.20;9.20;;;;;;;;;;4983261;28;24945;-66
2021/11/22 09:13:27;;;;;;;10.20;9.20;;;;;;;;;;4983203;28;24397;-65
2021/11/22 09:15:52;;;;;;;10.30;9.30;;;;;;;;;;4985072;28;24449;-66
2021/11/22 09:18:17;;;;;;;9.67;8.73;;;;;;;;;;4984952;28;24401;-66
2021/11/22 09:20:42;;;;;;;9.60;8.60;;;;;;;;;;4979303;28;24620;-66
2021/11/22 09:23:07;;;;;;;8.20;7.40;;;;;;;;;;4978917;28;25095;-66
2021/11/22 09:25:35;;;;;;;8.80;7.20;;;;;;;;;;4984569;28;24854;-67
2021/11/22 09:28:00;;;;;;;8.38;7.57;;;;;;;;;;4981897;28;24483;-67
2021/11/22 09:30:25;;;;;;;8.77;7.87;;;;;;;;;;4979959;28;24772;-67
2021/11/22 09:32:50;;;;;;;8.60;7.80;;;;;;;;;;4978085;28;24432;-67
2021/11/22 09:35:15;;;;;;;9.00;7.95;;;;;;;;;;4982478;28;24424;-68
2021/11/22 09:37:41;;;;;;;9.17;7.73;;;;;;;;;;4983984;28;25011;-67
2021/11/22 09:40:07;;;;;;;9.30;8.30;;;;;;;;;;4982623;28;24475;-67
2021/11/22 09:42:32;;;;;;;9.35;8.48;;;;;;;;;;4981155;28;24413;-67
2021/11/22 09:44:57;;;;;;;9.70;8.40;;;;;;;;;;4981781;28;24439;-67
2021/11/22 09:47:22;;;;;;;9.37;8.47;;;;;;;;;;4984476;28;24418;-67
2021/11/22 09:49:48;;;;;;;9.87;8.53;;;;;;;;;;4981296;28;25350;-67
2021/11/22 09:52:13;;;;;;;9.07;8.17;;;;;;;;;;4981122;28;26075;-66
2021/11/22 09:54:38;;;;;;;8.90;8.00;;;;;;;;;;4978454;28;24498;-66
2021/11/22 09:57:03;;;;;;;10.07;9.17;;;;;;;;;;4982741;28;24523;-66
2021/11/22 09:59:28;;;;;;;10.03;8.77;;;;;;;;;;4989011;28;24832;-66
2021/11/22 10:01:55;;;;;;;11.00;9.20;;;;;;;;;;4979313;28;24521;-66
2021/11/22 10:04:21;;;;;;;10.73;9.63;;;;;;;;;;4979624;28;24424;-67
2021/11/22 10:06:50;;;;;;;10.15;9.10;;;;;;;;;;4978217;28;24440;-66
2021/11/22 10:09:34;;;;;;;10.18;9.18;;;;;;;;;;4983716;28;24995;-66
2021/11/22 10:12:08;;;;;;;9.60;8.60;;;;;;;;;;4983104;28;24476;-66
2021/11/22 10:14:43;;;;;;;8.85;7.95;;;;;;;;;;4961277;28;24398;-66
2021/11/22 10:17:19;;;;;;;9.35;8.32;;;;;;;;;;4970398;28;24967;-66
2021/11/22 10:19:44;;;;;;;10.00;8.50;;;;;;;;;;4981954;28;24432;-66
2021/11/22 10:22:19;;;;;;;7.80;7.00;;;;;;;;;;4984255;28;24405;-67
2021/11/22 10:24:44;;;;;;;8.85;6.90;;;;;;;;;;4982048;28;24435;-67
2021/11/22 10:27:10;;;;;;;5.80;5.30;;;;;;;;;;4980256;28;25161;-66
2021/11/22 10:29:35;;;;;;;5.32;4.82;;;;;;;;;;4979277;28;24416;-68
2021/11/22 10:32:01;;;;;;;5.30;4.80;;;;;;;;;;4982737;28;24490;-68
2021/11/22 10:34:26;;;;;;;6.57;5.53;;;;;;;;;;4980257;28;24471;-67
2021/11/22 10:37:02;;;;;;;6.30;5.50;;;;;;;;;;4978736;28;24417;-68
2021/11/22 10:39:28;;;;;;;6.13;5.53;;;;;;;;;;4981968;28;24420;-67
2021/11/22 10:41:54;;;;;;;5.67;5.13;;;;;;;;;;4983124;28;24425;-66
2021/11/22 10:44:19;;;;;;;6.33;5.63;;;;;;;;;;4983036;28;25136;-66
2021/11/22 10:46:48;;;;;;;6.82;5.90;;;;;;;;;;4981012;28;24471;-63
2021/11/22 10:49:16;;;;;;;7.28;6.57;;;;;;;;;;4973519;28;25618;-66
2021/11/22 10:51:45;;;;;;;6.93;6.30;;;;;;;;;;4978794;28;24452;-66
2021/11/22 10:54:11;;;;;;;7.40;6.70;;;;;;;;;;4982593;28;25073;-66
2021/11/22 10:56:38;;;;;;;6.57;5.88;;;;;;;;;;4976996;28;24467;-66
2021/11/22 10:59:05;;;;;;;8.20;7.40;;;;;;;;;;4981901;28;24448;-66
2021/11/22 11:01:36;;;;;;;7.53;6.72;;;;;;;;;;4982239;28;24397;-66
2021/11/22 11:04:01;;;;;;;7.38;6.68;;;;;;;;;;4983638;28;24409;-67
2021/11/22 11:06:34;;;;;;;7.70;6.90;;;;;;;;;;4979074;28;24436;-67
2021/11/22 11:09:00;;;;;;;8.00;7.20;;;;;;;;;;4977005;28;24421;-66
2021/11/22 11:11:25;;;;;;;7.60;6.90;;;;;;;;;;4972855;28;24424;-66
2021/11/22 11:13:50;;;;;;;7.47;6.77;;;;;;;;;;4977494;28;24456;-67
2021/11/22 11:16:17;;;;;;;7.20;6.60;;;;;;;;;;4982924;28;24424;-66
2021/11/22 11:18:56;;;;;;;7.10;6.50;;;;;;;;;;4979655;28;24425;-67
2021/11/22 11:21:24;;;;;;;6.37;5.80;;;;;;;;;;4980653;28;24417;-66
2021/11/22 11:23:50;;;;;;;6.70;6.00;;;;;;;;;;4982598;28;24421;-68
2021/11/22 11:26:16;;;;;;;6.38;5.78;;;;;;;;;;4990559;28;24482;-66
2021/11/22 11:28:42;;;;;;;6.30;5.70;;;;;;;;;;4977909;28;24776;-66
2021/11/22 11:31:07;;;;;;;6.30;5.70;;;;;;;;;;4978037;28;24460;-66
2021/11/22 11:33:32;;;;;;;6.13;5.50;;;;;;;;;;4993115;28;24416;-66
2021/11/22 11:36:01;;;;;;;5.30;4.90;;;;;;;;;;4982267;28;24793;-67
2021/11/22 11:38:33;;;;;;;6.00;5.40;;;;;;;;;;4975974;28;24518;-66
2021/11/22 11:41:15;;;;;;;6.40;5.88;;;;;;;;;;4976589;28;24424;-67
2021/11/22 11:43:40;;;;;;;5.57;5.18;;;;;;;;;;4979712;28;24420;-66
2021/11/22 11:46:17;;;;;;;5.90;5.40;;;;;;;;;;4980980;28;25000;-68
2021/11/22 11:49:00;;;;;;;5.80;5.20;;;;;;;;;;4981852;28;25282;-69
2021/11/22 11:51:35;;;;;;;6.32;5.30;;;;;;;;;;4978224;28;24457;-68
2021/11/22 11:54:01;;;;;;;6.05;5.38;;;;;;;;;;4978379;28;24445;-66
2021/11/22 11:56:51;;;;;;;6.20;5.60;;;;;;;;;;4979558;28;24495;-66
2021/11/22 11:59:45;;;;;;;6.82;6.22;;;;;;;;;;4980824;28;24437;-66
2021/11/22 12:02:10;;;;;;;7.38;6.30;;;;;;;;;;4980859;28;24986;-66
2021/11/22 12:04:44;;;;;;;6.63;6.03;;;;;;;;;;4981405;28;24736;-66
2021/11/22 12:07:10;;;;;;;6.38;5.78;;;;;;;;;;4977911;28;24428;-65
2021/11/22 12:09:42;;;;;;;6.05;5.45;;;;;;;;;;4981625;28;24413;-63
2021/11/22 12:12:07;;;;;;;5.85;5.35;;;;;;;;;;4982921;28;24524;-63
2021/11/22 12:14:51;;;;;;;6.50;5.90;;;;;;;;;;4982671;28;24508;-67
2021/11/22 12:17:34;;;;;;;6.00;5.30;;;;;;;;;;4984094;28;24424;-68
2021/11/22 12:20:07;;;;;;;5.80;5.30;;;;;;;;;;4979085;28;24432;-69
2021/11/22 12:22:36;;;;;;;5.30;4.80;;;;;;;;;;4981934;28;24497;-68
2021/11/22 12:25:02;;;;;;;4.40;4.00;;;;;;;;;;4979646;28;24435;-68
2021/11/22 12:27:27;;;;;;;4.33;3.93;;;;;;;;;;4981119;28;24542;-68
2021/11/22 12:29:57;;;;;;;3.97;3.58;;;;;;;;;;4981953;28;24503;-68
2021/11/22 12:32:25;;;;;;;5.32;4.63;;;;;;;;;;4982464;28;24433;-68
2021/11/22 12:34:54;;;;;;;5.40;4.90;;;;;;;;;;4976568;28;25055;-67
2021/11/22 12:37:24;;;;;;;5.55;5.05;;;;;;;;;;4975511;28;24419;-68
2021/11/22 12:39:50;;;;;;;5.03;4.53;;;;;;;;;;4982501;28;25074;-69
2021/11/22 12:42:17;;;;;;;4.75;4.35;;;;;;;;;;4982680;28;24460;-68
2021/11/22 12:44:54;;;;;;;5.32;4.93;;;;;;;;;;4977737;28;24459;-68
2021/11/22 12:47:23;;;;;;;5.60;5.00;;;;;;;;;;4975783;28;24455;-68
2021/11/22 12:49:49;;;;;;;5.00;4.50;;;;;;;;;;4980766;28;24779;-68
2021/11/22 12:52:24;;;;;;;4.10;3.80;;;;;;;;;;4982683;28;24424;-68
2021/11/22 12:54:58;;;;;;;4.50;4.10;;;;;;;;;;4981325;28;24421;-68
2021/11/22 12:57:25;;;;;;;4.18;3.88;;;;;;;;;;4976903;28;24389;-68
2021/11/22 13:00:06;;;;;;;4.68;4.28;;;;;;;;;;4979748;28;24427;-68
2021/11/22 13:02:43;;;;;;;4.35;3.80;;;;;;;;;;4981270;28;24408;-68
2021/11/22 13:05:08;;;;;;;3.90;3.60;;;;;;;;;;4982294;28;24436;-68
2021/11/22 13:07:33;;;;;;;4.10;3.80;;;;;;;;;;4977411;28;24417;-68
2021/11/22 13:09:59;;;;;;;4.50;4.10;;;;;;;;;;4980142;28;24500;-68
2021/11/22 13:12:30;;;;;;;4.20;3.80;;;;;;;;;;4980178;28;24412;-68
2021/11/22 13:15:02;;;;;;;3.53;2.75;;;;;;;;;;4983484;28;24413;-68
2021/11/22 13:17:27;;;;;;;3.40;3.10;;;;;;;;;;4983227;28;24512;-68
2021/11/22 13:19:56;;;;;;;3.55;3.25;;;;;;;;;;4981484;28;24588;-68
2021/11/22 13:22:21;;;;;;;3.50;3.17;;;;;;;;;;4980856;28;24420;-69
2021/11/22 13:24:46;;;;;;;3.13;2.90;;;;;;;;;;4981326;28;24413;-68
2021/11/22 13:27:12;;;;;;;3.00;2.80;;;;;;;;;;4981908;28;24993;-68
2021/11/22 13:29:39;;;;;;;3.17;2.88;;;;;;;;;;4982959;28;24445;-68
2021/11/22 13:32:05;;;;;;;3.10;2.80;;;;;;;;;;4984891;28;24406;-67
2021/11/22 13:34:31;;;;;;;2.60;2.40;;;;;;;;;;4979501;28;24408;-67
2021/11/22 13:36:58;;;;;;;2.40;2.20;;;;;;;;;;4981477;28;24533;-68
2021/11/22 13:39:25;;;;;;;2.20;2.00;;;;;;;;;;4977178;28;25079;-68
2021/11/22 13:41:54;;;;;;;2.50;2.30;;;;;;;;;;4984984;28;24496;-68
2021/11/22 13:44:21;;;;;;;2.30;2.10;;;;;;;;;;4985312;28;24950;-68
2021/11/22 13:46:46;;;;;;;2.93;2.10;;;;;;;;;;4982663;28;24441;-68
2021/11/22 13:49:13;;;;;;;1.80;1.70;;;;;;;;;;4981878;28;24424;-68
2021/11/22 13:51:40;;;;;;;1.75;1.65;;;;;;;;;;4979006;28;24820;-66
2021/11/22 13:54:07;;;;;;;1.90;1.70;;;;;;;;;;4982196;28;24682;-68
2021/11/22 13:56:38;;;;;;;1.63;1.52;;;;;;;;;;4983158;28;24397;-68
2021/11/22 13:59:13;;;;;;;1.80;1.70;;;;;;;;;;4984735;28;24485;-69
2021/11/22 14:01:42;;;;;;;1.80;1.70;;;;;;;;;;4981073;28;25040;-68
2021/11/22 14:04:07;;;;;;;1.85;1.50;;;;;;;;;;4978628;28;24436;-69
2021/11/22 14:06:33;;;;;;;1.60;1.50;;;;;;;;;;4984503;28;24429;-69
2021/11/22 14:08:58;;;;;;;1.60;1.50;;;;;;;;;;4979671;28;25134;-68
2021/11/22 14:11:24;;;;;;;1.50;1.40;;;;;;;;;;4973261;28;24411;-67
2021/11/22 14:13:50;;;;;;;1.50;1.40;;;;;;;;;;4981859;28;24971;-68
2021/11/22 14:16:17;;;;;;;2.60;1.47;;;;;;;;;;4981298;28;24966;-67
2021/11/22 14:18:42;;;;;;;1.85;1.75;;;;;;;;;;4980063;28;24420;-67
2021/11/22 14:21:07;;;;;;;2.00;1.50;;;;;;;;;;4980226;28;24839;-68
2021/11/22 14:23:33;;;;;;;2.00;1.60;;;;;;;;;;4981266;28;24508;-68
2021/11/22 14:26:05;;;;;;;1.80;1.70;;;;;;;;;;4980409;28;24436;-68
2021/11/22 14:28:37;;;;;;;2.33;1.77;;;;;;;;;;4980267;28;24397;-68